Nearby METAR Reports

 

KLEX - Lexington, Kentucky, USA
Distance from station: WNW 7mi, 11km
Updated: Tue, 16-Jan-2018 1:54am EST
Light snow, Overcast
Light snow, Overcast
 Wind from W
Wind: W 9 mph , 15 km/h
Temperature: 19°F , -7°C
Wind Chill: 8°F , -13°C
Dew Point: 14°F , -10°C
Humidity: 79%
Barometer: 30.40 inHg , 1029.5 hPa
Summary: Light Snow
Clouds: Overcast
Visibility: 2 1/2 miles , 2 km
Cloud details: Overcast 4800 ft
2018/01/16 06:54 KLEX 160654Z 28008KT 2 1/2SM -SN OVC048 M07/M10 A3040 RMK AO2 SLP304 P0001 T10721100 $
KFFT - Frankfort, Kentucky, USA
Distance from station: WNW 26mi, 42km
Updated: Tue, 16-Jan-2018 1:53am EST
Light snow, Overcast
Light snow, Overcast
 Wind from NW
Wind: NW 7 mph , 11 km/h
Temperature: 16°F , -9°C
Wind Chill: 6°F , -14°C
Dew Point: 10°F , -12°C
Humidity: 79%
Barometer: 30.42 inHg , 1030.1 hPa
Summary: Light Snow
Clouds: Overcast
Visibility: 1 1/4 miles , 2 km
Cloud details: Few Clouds 1000 ft
Overcast 1900 ft
2018/01/16 06:53 KFFT 160653Z AUTO 32006KT 1 1/4SM -SN FEW010 OVC019 M09/M12 A3042 RMK AO2 SLP311 P0000 T10891122
 
KIOB - Mount Sterling, Kentucky, USA
Distance from station: E 27mi, 44km
Updated: Tue, 16-Jan-2018 1:55am EST
Overcast
Overcast
 Wind from NW
Wind: NW 6 mph , 9 km/h
Temperature: 25°F , -4°C
Wind Chill: 18°F , -8°C
Dew Point: 21°F , -6°C
Humidity: 86%
Barometer: 30.39 inHg , 1029.1 hPa
Clouds: Overcast
Visibility: 10 miles , 16 km
Cloud details: Overcast 1700 ft
2018/01/16 06:55 KIOB 160655Z AUTO 32005KT 10SM OVC017 M04/M06 A3039 RMK AO2
KDVK - Danville, Kentucky, USA
Distance from station: SSW 33mi, 53km
Updated: Tue, 16-Jan-2018 1:55am EST
Light snow, Overcast
Light snow, Overcast
 Wind from NW
Wind: NW 9 mph , 15 km/h
Temperature: 21°F , -6°C
Wind Chill: 11°F , -12°C
Dew Point: 18°F , -8°C
Humidity: 86%
Barometer: 30.41 inHg , 1029.8 hPa
Summary: Light Snow
Clouds: Overcast
Visibility: 4 miles , 6 km
Cloud details: Overcast 2200 ft
2018/01/16 06:55 KDVK 160655Z AUTO 32008KT 4SM -SN OVC022 M06/M08 A3041 RMK AO2